createdAt,value
2023-04-29T00:00:28.003Z,100734.81
2023-04-29T00:05:30.426Z,100730.22
2023-04-29T00:10:33.078Z,100731.16
2023-04-29T00:15:35.388Z,100738.56
2023-04-29T00:20:40.983Z,100748.09
2023-04-29T00:25:43.129Z,100730.63
2023-04-29T00:30:45.364Z,100744.13
2023-04-29T00:35:47.615Z,100716.00
2023-04-29T00:40:49.974Z,100723.97
2023-04-29T00:45:52.548Z,100706.03
2023-04-29T00:50:54.743Z,100690.56
2023-04-29T00:55:57.417Z,100695.63
2023-04-29T01:01:04.302Z,100691.66
2023-04-29T01:06:33.882Z,100709.34
2023-04-29T01:11:48.043Z,100719.00
2023-04-29T01:16:56.178Z,100729.72
2023-04-29T01:21:58.319Z,100713.13
2023-04-29T01:27:11.351Z,100706.63
2023-04-29T01:32:34.029Z,100728.13
2023-04-29T01:38:01.031Z,100694.06
2023-04-29T01:43:06.217Z,100704.19
2023-04-29T01:48:10.098Z,100729.63
2023-04-29T01:53:12.379Z,100714.47
2023-04-29T01:58:14.518Z,100722.78
2023-04-29T02:03:18.347Z,100710.19
2023-04-29T02:08:20.633Z,100684.69
2023-04-29T02:13:22.858Z,100727.06
2023-04-29T02:18:25.160Z,100703.34
2023-04-29T02:23:27.334Z,100720.22
2023-04-29T02:28:29.502Z,100711.16
2023-04-29T02:33:32.663Z,100704.03
2023-04-29T02:38:34.882Z,100716.50
2023-04-29T02:43:37.252Z,100719.94
2023-04-29T02:48:39.692Z,100733.75
2023-04-29T02:53:41.890Z,100720.59
2023-04-29T02:58:44.129Z,100691.44
2023-04-29T03:03:47.084Z,100713.53
2023-04-29T03:08:49.432Z,100726.69
2023-04-29T03:13:51.737Z,100701.88
2023-04-29T03:18:53.981Z,100711.66
2023-04-29T03:23:56.629Z,100731.59
2023-04-29T03:28:59.419Z,100722.13
2023-04-29T03:34:01.637Z,100720.44
2023-04-29T03:39:04.021Z,100734.53
2023-04-29T03:44:06.374Z,100721.19
2023-04-29T03:49:08.572Z,100751.53
2023-04-29T03:54:11.266Z,100734.22
2023-04-29T03:59:13.635Z,100762.41
2023-04-29T04:04:16.260Z,100745.53
2023-04-29T04:09:21.398Z,100765.25
2023-04-29T04:14:23.657Z,100749.19
2023-04-29T04:19:27.428Z,100729.91
2023-04-29T04:24:29.656Z,100727.94
2023-04-29T04:29:31.972Z,100750.38
2023-04-29T04:34:34.177Z,100769.63
2023-04-29T04:39:37.019Z,100759.00
2023-04-29T04:44:39.261Z,100747.13
2023-04-29T04:49:41.707Z,100752.41
2023-04-29T04:54:46.984Z,100752.97
2023-04-29T04:59:49.322Z,100770.53
2023-04-29T05:04:51.564Z,100754.59
2023-04-29T05:09:54.157Z,100744.63
2023-04-29T05:14:57.081Z,100766.63
2023-04-29T05:19:59.279Z,100768.34
2023-04-29T05:25:03.715Z,100761.97
2023-04-29T05:30:06.684Z,100764.81
2023-04-29T05:35:09.364Z,100775.63
2023-04-29T05:40:11.996Z,100755.97
2023-04-29T05:45:14.355Z,100778.22
2023-04-29T05:50:16.572Z,100770.47
2023-04-29T05:55:18.850Z,100777.69
2023-04-29T06:00:21.429Z,100782.75
2023-04-29T06:05:24.061Z,100787.84
2023-04-29T06:10:26.810Z,100805.56
2023-04-29T06:15:29.157Z,100797.41
2023-04-29T06:20:31.613Z,100789.13
2023-04-29T06:25:34.582Z,100794.16
2023-04-29T06:30:36.918Z,100775.28
2023-04-29T06:35:42.666Z,100780.69
2023-04-29T06:40:45.002Z,100785.69
2023-04-29T06:45:47.728Z,100778.22
2023-04-29T06:50:57.142Z,100764.72
2023-04-29T06:55:59.341Z,100760.97
2023-04-29T07:01:04.709Z,100778.22
2023-04-29T07:06:07.109Z,100768.63
2023-04-29T07:11:10.167Z,100765.53
2023-04-29T07:16:17.555Z,100743.06
2023-04-29T07:21:19.895Z,100755.03
2023-04-29T07:26:22.288Z,100729.19
2023-04-29T07:31:24.690Z,100732.03
2023-04-29T07:36:28.851Z,100722.97
2023-04-29T07:41:31.469Z,100740.03
2023-04-29T07:46:33.828Z,100743.69
2023-04-29T07:51:36.044Z,100709.38
2023-04-29T07:56:38.215Z,100741.84
2023-04-29T08:01:43.098Z,100728.44
2023-04-29T08:06:45.482Z,100717.38
2023-04-29T08:11:47.728Z,100740.06
2023-04-29T08:16:49.963Z,100742.06
2023-04-29T08:21:52.515Z,100736.34
2023-04-29T08:26:54.700Z,100726.91
2023-04-29T08:31:57.155Z,100733.84
2023-04-29T08:36:59.520Z,100717.00
2023-04-29T08:42:09.280Z,100720.59
2023-04-29T08:47:12.109Z,100711.47
2023-04-29T08:52:14.492Z,100722.19
2023-04-29T08:57:17.279Z,100695.38
2023-04-29T09:02:21.955Z,100693.00
2023-04-29T09:07:24.942Z,100696.19
2023-04-29T09:12:27.313Z,100677.69
2023-04-29T09:17:49.170Z,100653.84
2023-04-29T09:22:56.194Z,100656.78
2023-04-29T09:27:58.419Z,100639.88
2023-04-29T09:33:08.564Z,100643.41
2023-04-29T09:38:13.439Z,100631.59
2023-04-29T09:43:19.057Z,100621.03
2023-04-29T09:48:21.255Z,100602.16
2023-04-29T09:53:32.066Z,100613.03
2023-04-29T09:58:38.610Z,100610.31
2023-04-29T10:03:43.217Z,100576.03
2023-04-29T10:08:48.924Z,100568.75
2023-04-29T10:13:53.104Z,100563.91
2023-04-29T10:18:59.112Z,100550.31
2023-04-29T10:24:04.012Z,100551.94
2023-04-29T10:29:09.161Z,100546.50
2023-04-29T10:34:13.384Z,100546.72
2023-04-29T10:39:24.429Z,100509.94
2023-04-29T10:44:26.718Z,100516.03
2023-04-29T10:49:35.455Z,100494.72
2023-04-29T10:54:40.111Z,100468.59
2023-04-29T10:59:42.533Z,100490.75
2023-04-29T11:05:09.985Z,100488.84
2023-04-29T11:10:13.978Z,100470.59
2023-04-29T11:15:18.754Z,100469.78
2023-04-29T11:20:20.952Z,100465.09
2023-04-29T11:25:26.420Z,100471.84
2023-04-29T11:30:29.392Z,100459.88
2023-04-29T11:35:32.106Z,100451.28
2023-04-29T11:40:34.335Z,100449.28
2023-04-29T11:45:36.578Z,100447.44
2023-04-29T11:50:38.788Z,100440.94
2023-04-29T11:55:45.031Z,100440.16
2023-04-29T12:00:50.409Z,100424.81
2023-04-29T12:05:52.538Z,100428.09
2023-04-29T12:10:59.150Z,100434.09
2023-04-29T12:16:02.113Z,100418.22
2023-04-29T12:21:04.518Z,100413.22
2023-04-29T12:26:06.788Z,100376.28
2023-04-29T12:31:11.807Z,100398.97
2023-04-29T12:36:21.483Z,100399.44
2023-04-29T12:41:38.054Z,100374.28
2023-04-29T12:46:41.715Z,100356.81
2023-04-29T12:51:44.171Z,100351.13
2023-04-29T12:56:48.820Z,100348.66
2023-04-29T13:01:52.027Z,100351.84
2023-04-29T13:07:03.122Z,100344.78
2023-04-29T13:12:05.989Z,100336.47
2023-04-29T13:17:08.231Z,100324.09
2023-04-29T13:22:10.482Z,100328.41
2023-04-29T13:27:12.962Z,100348.66
2023-04-29T13:32:18.114Z,100340.44
2023-04-29T13:37:20.840Z,100341.84
2023-04-29T13:42:26.541Z,100320.81
2023-04-29T13:47:31.406Z,100342.16
2023-04-29T13:58:30.821Z,100321.63
2023-04-29T14:08:08.840Z,100302.50
2023-04-29T14:13:11.032Z,100308.25
2023-04-29T14:18:13.263Z,100314.56
2023-04-29T14:23:15.494Z,100311.53
2023-04-29T14:28:17.751Z,100298.59
2023-04-29T14:33:20.147Z,100318.25
2023-04-29T14:38:22.400Z,100310.56
2023-04-29T14:43:24.664Z,100309.56
2023-04-29T14:48:26.905Z,100309.88
2023-04-29T14:53:29.078Z,100301.97
2023-04-29T14:58:31.494Z,100315.75
2023-04-29T15:03:33.766Z,100304.91
2023-04-29T15:08:36.083Z,100309.91
2023-04-29T15:13:38.456Z,100309.50
2023-04-29T15:18:40.836Z,100305.56
2023-04-29T15:23:44.111Z,100302.84
2023-04-29T15:28:47.155Z,100311.75
2023-04-29T15:33:49.369Z,100308.97
2023-04-29T15:38:52.115Z,100322.25
2023-04-29T15:43:55.497Z,100312.56
2023-04-29T15:48:58.014Z,100312.56
2023-04-29T15:54:00.435Z,100290.97
2023-04-29T15:59:02.663Z,100315.66
2023-04-29T16:04:05.206Z,100291.44
2023-04-29T16:09:07.616Z,100313.91
2023-04-29T16:14:09.919Z,100304.16
2023-04-29T16:19:12.104Z,100314.00
2023-04-29T16:24:15.372Z,100321.16
2023-04-29T16:29:18.643Z,100308.34
2023-04-29T16:34:20.920Z,100310.06
2023-04-29T16:39:24.162Z,100326.84
2023-04-29T16:44:26.373Z,100324.56
2023-04-29T16:49:28.641Z,100326.19
2023-04-29T16:54:31.928Z,100323.56
2023-04-29T16:59:34.786Z,100342.00
2023-04-29T17:04:37.221Z,100333.44
2023-04-29T17:09:39.514Z,100337.47
2023-04-29T17:14:41.731Z,100327.00
2023-04-29T17:19:44.058Z,100349.06
2023-04-29T17:24:46.929Z,100342.50
2023-04-29T17:29:49.165Z,100350.06
2023-04-29T17:34:52.454Z,100350.59
2023-04-29T17:39:55.742Z,100357.53
2023-04-29T17:44:59.208Z,100349.03
2023-04-29T17:50:02.468Z,100378.50
2023-04-29T17:55:06.137Z,100396.91
2023-04-29T18:00:09.059Z,100385.50
2023-04-29T18:05:11.294Z,100378.31
2023-04-29T18:10:13.523Z,100393.88
2023-04-29T18:15:16.984Z,100383.97
2023-04-29T18:20:19.429Z,100398.69
2023-04-29T18:25:21.688Z,100376.44
2023-04-29T18:30:24.346Z,100413.00
2023-04-29T18:35:27.034Z,100427.97
2023-04-29T18:40:29.251Z,100392.56
2023-04-29T18:45:31.493Z,100424.16
2023-04-29T18:50:33.733Z,100414.59
2023-04-29T18:55:36.430Z,100413.66
2023-04-29T19:00:38.919Z,100415.63
2023-04-29T19:05:41.727Z,100436.78
2023-04-29T19:10:45.145Z,100447.75
2023-04-29T19:15:51.043Z,100426.75
2023-04-29T19:20:54.075Z,100421.53
2023-04-29T19:25:56.308Z,100444.44
2023-04-29T19:30:58.496Z,100428.97
2023-04-29T19:36:00.873Z,100415.41
2023-04-29T19:41:03.250Z,100428.72
2023-04-29T19:46:06.174Z,100449.47
2023-04-29T19:51:09.047Z,100438.06
2023-04-29T19:56:11.276Z,100423.41
2023-04-29T20:01:13.590Z,100435.09
2023-04-29T20:06:18.888Z,100437.31
2023-04-29T20:11:21.685Z,100424.31
2023-04-29T20:16:24.229Z,100425.94
2023-04-29T20:21:26.595Z,100427.00
2023-04-29T20:26:28.887Z,100445.88
2023-04-29T20:31:31.434Z,100441.03
2023-04-29T20:36:33.897Z,100413.75
2023-04-29T20:41:36.029Z,100423.53
2023-04-29T20:46:38.425Z,100410.59
2023-04-29T20:51:40.845Z,100432.19
2023-04-29T20:56:43.099Z,100426.47
2023-04-29T21:01:46.769Z,100411.69
2023-04-29T21:06:51.079Z,100419.38
2023-04-29T21:11:53.568Z,100441.09
2023-04-29T21:16:56.184Z,100411.47
2023-04-29T21:21:58.336Z,100412.97
2023-04-29T21:27:00.465Z,100431.63
2023-04-29T21:32:05.680Z,100402.22
2023-04-29T21:37:07.834Z,100403.06
2023-04-29T21:42:10.987Z,100435.09
2023-04-29T21:47:14.005Z,100425.94
2023-04-29T21:52:16.974Z,100432.88
2023-04-29T21:57:23.975Z,100414.91
2023-04-29T22:02:38.550Z,100412.69
2023-04-29T22:07:41.122Z,100435.41
2023-04-29T22:12:43.370Z,100423.38
2023-04-29T22:17:45.698Z,100410.41
2023-04-29T22:22:47.916Z,100438.56
2023-04-29T22:27:50.728Z,100428.56
2023-04-29T22:32:52.955Z,100405.59
2023-04-29T22:37:55.254Z,100398.97
2023-04-29T22:42:57.752Z,100414.91
2023-04-29T22:48:00.101Z,100395.69
2023-04-29T22:53:02.356Z,100413.91
2023-04-29T22:58:04.952Z,100390.00
2023-04-29T23:03:07.209Z,100372.78
2023-04-29T23:08:09.653Z,100373.44
2023-04-29T23:13:13.260Z,100392.44
2023-04-29T23:18:15.648Z,100397.84
2023-04-29T23:23:18.291Z,100376.78
2023-04-29T23:28:20.457Z,100379.47
2023-04-29T23:33:22.694Z,100388.25
2023-04-29T23:38:24.990Z,100366.47
2023-04-29T23:43:27.230Z,100320.50
2023-04-29T23:48:29.447Z,100357.38
2023-04-29T23:53:31.736Z,100356.09
2023-04-29T23:58:33.967Z,100360.00
